Latest Weather Observations for Adelaide (West Terrace / ngayirdapira)

IDS60801

Issued at 10:11 pm CDT Thursday 17 January 2019 (issued every 10 minutes, with the page automatically refreshed every 10 minutes)

About weather observations | Map of weather stations | Latest weather observations for SA | Other Formats
Station Details ID: 023000 Name: ADELAIDE (WEST TERRACE / NGAYIRDAPIRA) Lat: -34.93 Lon: 138.58 Height: 29.32 m
Data from the previous 72 hours. | See also: Recent months at Adelaide (West Terrace / ngayirdapira)
Date/Time
CDT
Temp
°C
App
Temp
°C
Dew
Point
°C
Rel
Hum
%
Delta-T
°C
Wind Press
QNH
hPa
Press
MSL
hPa
Rain since
9am
mm
Dir  Spd
km/h
Gust
km/h
Spd
kts
Gust
kts
17/10:00pm 31.0 29.9 11.9 31 11.2 SSE 9 15 5 8 1007.3 1007.1 0.0
17/09:30pm 31.4 29.7 11.2 29 11.8 SSE 11 17 6 9 1007.0 1006.8 0.0
17/09:00pm 30.9 29.4 11.8 31 11.2 S 11 20 6 11 1007.2 1007.0 0.0
17/08:30pm 30.5 29.7 12.9 34 10.5 ESE 9 15 5 8 1007.1 1006.9 0.0
17/08:00pm 30.6 29.5 13.0 34 10.5 S 11 20 6 11 1007.3 1007.1 0.0
17/07:30pm 30.7 28.6 13.5 35 10.3 S 17 24 9 13 1007.4 1007.2 0.0
17/07:00pm 30.6 29.3 14.7 38 9.7 S 15 24 8 13 1007.5 1007.3 0.0
17/06:30pm 31.7 28.8 13.0 32 11.2 SSW 20 35 11 19 1007.8 1007.6 0.0
17/06:00pm 32.0 28.5 12.3 30 11.7 SSW 22 37 12 20 1007.0 1006.8 0.0
17/05:30pm 31.9 28.9 12.7 31 11.5 SSW 20 35 11 19 1006.7 1006.5 0.0
17/05:00pm 30.4 28.1 14.1 37 9.9 SSW 19 28 10 15 1006.7 1006.5 0.0
17/04:30pm 29.6 26.7 15.0 41 8.9 SSW 24 41 13 22 1006.8 1006.6 0.0
17/04:17pm 29.5 25.6 14.5 40 9.1 SW 28 52 15 28 1006.8 1006.6 0.0
17/04:00pm 31.1 29.1 15.5 39 9.7 SW 20 33 11 18 1006.3 1006.1 0.0
17/03:45pm 30.4 27.0 15.7 41 9.1 SW 28 46 15 25 1006.5 1006.3 0.0
17/03:41pm 32.3 29.7 14.9 35 10.7 SW 22 46 12 25 1006.4 1006.2 0.0
17/03:30pm 37.4 34.8 10.7 20 15.8 SW 15 20 8 11 1006.2 1006.0 0.0
17/03:00pm 38.1 35.8 10.5 19 16.3 SW 13 20 7 11 1006.3 1006.1 0.0
17/02:30pm 37.7 35.7 11.6 21 15.7 WSW 13 20 7 11 1006.5 1006.3 0.0
17/02:00pm 38.7 37.4 10.1 18 16.8 NW 7 15 4 8 1006.7 1006.5 0.0
17/01:30pm 37.5 37.0 10.7 20 15.9 SE 4 9 2 5 1006.8 1006.6 0.0
17/01:00pm 36.9 37.0 10.2 20 15.6 CALM 0 0 0 0 1007.2 1007.0 0.0
17/12:30pm 37.2 37.5 14.5 26 14.2 ENE 6 11 3 6 1007.4 1007.2 0.0
17/12:00pm 35.7 36.1 12.6 25 14.0 E 2 7 1 4 1007.7 1007.5 0.0
17/11:30am 35.2 34.6 13.4 27 13.3 WSW 9 13 5 7 1007.9 1007.7 0.0
17/11:00am 35.2 34.7 12.8 26 13.5 SSW 7 13 4 7 1008.0 1007.8 0.0
17/10:30am 33.8 35.9 16.2 35 11.1 CALM 0 6 0 3 1007.9 1007.7 0.0
17/10:00am 31.7 33.7 16.0 38 9.8 CALM 0 0 0 0 1008.2 1008.0 0.0
17/09:30am 30.4 32.6 16.4 43 8.8 CALM 0 0 0 0 1008.5 1008.3 0.0
17/09:00am 29.8 30.7 16.2 43 8.5 SSW 6 9 3 5 1008.9 1008.7 0.0
17/08:30am 28.6 29.2 15.8 45 7.9 SSW 7 13 4 7 1008.8 1008.6 0.0
17/08:00am 27.2 27.9 15.6 49 7.1 NNW 6 9 3 5 1008.1 1007.9 0.0
17/07:30am 27.3 28.8 14.7 46 7.6 CALM 0 0 0 0 1008.0 1007.8 0.0
17/07:00am 27.6 27.0 13.5 41 8.4 NNE 9 13 5 7 1007.6 1007.4 0.0
17/06:30am 29.2 28.7 12.6 36 9.8 NE 7 9 4 5 1007.1 1006.9 0.0
17/06:00am 30.3 28.6 11.3 31 11.0 SE 11 20 6 11 1007.1 1006.9 0.0
17/05:30am 25.7 27.3 14.8 51 6.6 CALM 0 6 0 3 1007.3 1007.1 0.0
17/05:00am 29.0 27.8 11.6 34 10.1 ESE 9 19 5 10 1006.6 1006.4 0.0
17/04:30am 24.9 26.1 15.8 57 5.5 SW 4 9 2 5 1007.3 1007.1 0.0
17/04:00am 24.4 25.1 15.6 58 5.3 S 6 7 3 4 1007.6 1007.4 0.0
17/03:30am 24.5 24.8 15.1 55 5.7 SW 7 9 4 5 1008.4 1008.2 0.0
17/03:00am 25.1 25.6 14.9 53 6.1 SW 6 9 3 5 1008.8 1008.6 0.0
17/02:30am 25.1 26.2 16.5 59 5.3 S 6 11 3 6 1009.1 1008.9 0.0
17/02:00am 25.2 24.6 16.6 59 5.3 S 15 22 8 12 1009.6 1009.4 0.0
17/01:30am 25.2 25.5 19.6 71 3.6 W 17 39 9 21 1008.8 1008.6 0.0
17/01:00am 26.8 29.1 17.8 57 5.7 NNE 2 9 1 5 1007.6 1007.4 0.0
17/12:30am 26.8 27.2 18.1 59 5.5 NE 13 20 7 11 1007.7 1007.5 0.0
17/12:00am 26.1 28.1 19.2 65 4.4 N 7 11 4 6 1008.1 1007.9 0.0
 
Date/Time
CDT
Temp
°C
App
Temp
°C
Dew
Point
°C
Rel
Hum
%
Delta-T
°C
Wind Press
QNH
hPa
Press
MSL
hPa
Rain since
9am
mm
Dir  Spd
km/h
Gust
km/h
Spd
kts
Gust
kts
16/11:30pm 27.3 28.0 18.0 56 5.9 N 11 15 6 8 1007.7 1007.5 0.0
16/11:00pm 28.5 29.1 17.7 52 6.8 NNE 11 17 6 9 1007.2 1007.0 0.0
16/10:30pm 28.6 29.4 17.2 50 7.2 NNE 9 11 5 6 1007.4 1007.2 0.0
16/10:00pm 27.9 29.4 17.7 53 6.5 NW 6 11 3 6 1007.2 1007.0 0.0
16/09:30pm 31.4 31.2 13.6 33 10.8 SSW 7 9 4 5 1005.9 1005.7 0.0
16/09:00pm 32.9 32.1 13.0 30 12.0 ESE 9 15 5 8 1005.4 1005.2 0.0
16/08:30pm 31.9 31.6 14.5 34 10.7 WSW 9 13 5 7 1006.2 1006.0 0.0
16/08:00pm 34.5 32.1 12.8 27 13.1 WNW 17 32 9 17 1006.2 1006.0 0.0
16/07:30pm 36.7 32.2 10.1 20 15.6 NW 24 37 13 20 1005.8 1005.6 0.0
16/07:00pm 37.2 33.6 10.5 20 15.7 NNW 20 32 11 17 1005.4 1005.2 0.0
16/06:30pm 37.0 34.5 9.6 19 15.9 N 13 20 7 11 1005.3 1005.1 0.0
16/06:00pm 37.1 32.5 8.0 17 16.5 NNW 22 39 12 21 1005.3 1005.1 0.0
16/05:51pm 36.6 32.1 8.4 18 16.0 NNW 22 43 12 23 1005.2 1005.0 0.0
16/05:30pm 38.0 35.0 5.9 14 17.8 N 11 19 6 10 1005.3 1005.1 0.0
16/05:00pm 39.0 35.9 5.6 13 18.4 N 11 19 6 10 1004.6 1004.4 0.0
16/04:30pm 39.6 36.0 4.9 12 19.1 N 13 19 7 10 1005.0 1004.8 0.0
16/04:00pm 38.8 37.1 8.5 16 17.4 N 7 13 4 7 1005.5 1005.3 0.0
16/03:30pm 38.5 36.5 7.3 15 17.7 NE 7 11 4 6 1005.4 1005.2 0.0
16/03:00pm 36.6 37.3 14.6 27 13.7 S 4 7 2 4 1005.9 1005.7 0.0
16/02:30pm 35.8 36.3 13.9 27 13.5 SSW 4 9 2 5 1006.5 1006.3 0.0
16/02:00pm 39.2 34.8 0.6 9 19.8 NNW 13 20 7 11 1007.0 1006.8 0.0
16/01:30pm 39.5 36.2 2.2 10 19.6 NNE 9 19 5 10 1007.0 1006.8 0.0
16/01:00pm 37.7 35.2 6.6 15 17.3 NE 9 13 5 7 1007.3 1007.1 0.0
16/12:30pm 35.3 33.2 8.2 19 15.3 ENE 9 13 5 7 1007.5 1007.3 0.0
16/12:00pm 34.2 34.6 11.4 25 13.5 CALM 0 0 0 0 1008.5 1008.3 0.0
16/11:30am 34.8 34.3 7.8 19 15.1 CALM 0 4 0 2 1008.8 1008.6 0.0
16/11:00am 34.5 32.2 7.5 19 15.0 NE 9 15 5 8 1008.5 1008.3 0.0
16/10:30am 33.5 31.4 6.7 19 14.7 ENE 7 11 4 6 1008.7 1008.5 0.0
16/10:00am 29.7 27.2 9.8 29 11.2 NNE 13 24 7 13 1008.9 1008.7 0.0
16/09:30am 27.7 25.4 10.4 34 9.8 NE 13 19 7 10 1009.0 1008.8 0.0
16/09:00am 27.6 26.2 9.0 31 10.2 ESE 6 11 3 6 1009.5 1009.3 0.0
16/08:30am 25.9 25.2 12.0 42 8.0 S 7 9 4 5 1010.0 1009.9 0.0
16/08:00am 25.3 25.8 14.1 50 6.6 SSW 4 7 2 4 1010.0 1009.9 0.0
16/07:30am 24.8 24.6 14.6 53 6.1 ESE 9 13 5 7 1009.4 1009.2 0.0
16/07:00am 23.6 23.8 14.3 56 5.5 SE 6 11 3 6 1009.5 1009.3 0.0
16/06:30am 22.5 23.1 16.8 70 3.5 S 9 13 5 7 1009.1 1008.9 0.0
16/06:00am 22.0 21.6 13.1 57 5.1 SSE 7 9 4 5 1008.4 1008.2 0.0
16/05:30am 21.7 20.8 10.5 49 6.1 WSW 6 9 3 5 1007.5 1007.3 0.0
16/05:00am 22.6 22.5 9.4 43 7.1 CALM 0 0 0 0 1006.7 1006.5 0.0
16/04:30am 22.3 21.7 7.3 38 7.8 CALM 0 0 0 0 1007.0 1006.8 0.0
16/04:00am 24.6 22.7 6.8 32 9.3 NNE 6 9 3 5 1007.3 1007.1 0.0
16/03:30am 24.8 23.1 7.4 33 9.2 N 6 9 3 5 1007.5 1007.3 0.0
16/03:00am 23.4 22.7 7.1 35 8.5 CALM 0 0 0 0 1007.5 1007.3 0.0
16/02:30am 23.9 23.0 6.2 32 9.1 CALM 0 0 0 0 1007.6 1007.4 0.0
16/02:00am 25.4 23.5 6.6 30 9.8 N 6 9 3 5 1007.9 1007.7 0.0
16/01:30am 25.4 23.4 4.5 26 10.5 WNW 4 7 2 4 1008.2 1008.0 0.0
16/01:00am 25.4 23.2 5.1 27 10.3 WSW 6 7 3 4 1008.1 1007.9 0.0
16/12:30am 27.3 24.9 4.4 23 11.6 SE 6 9 3 5 1008.2 1008.0 0.0
16/12:00am 26.7 27.1 11.2 38 8.8 CALM 0 0 0 0 1008.7 1008.5 0.0
 
Date/Time
CDT
Temp
°C
App
Temp
°C
Dew
Point
°C
Rel
Hum
%
Delta-T
°C
Wind Press
QNH
hPa
Press
MSL
hPa
Rain since
9am
mm
Dir  Spd
km/h
Gust
km/h
Spd
kts
Gust
kts
15/11:30pm 26.1 27.2 14.6 49 6.9 SSE 2 7 1 4 1008.8 1008.6 0.0
15/11:00pm 27.9 28.4 12.7 39 8.9 E 2 6 1 3 1008.7 1008.5 0.0
15/10:30pm 28.3 27.8 13.8 41 8.7 WSW 9 24 5 13 1009.0 1008.8 0.0
15/10:00pm 32.4 28.9 3.4 16 14.9 NE 11 15 6 8 1007.6 1007.4 0.0
15/09:30pm 31.1 28.4 5.5 20 13.6 NE 9 15 5 8 1007.8 1007.6 0.0
15/09:00pm 27.6 28.3 13.5 41 8.4 SW 2 6 1 3 1008.2 1008.0 0.0
15/08:30pm 29.5 27.9 11.5 33 10.4 SSW 11 19 6 10 1008.3 1008.1 0.0
15/08:00pm 31.6 27.1 5.9 20 13.7 SW 19 35 10 19 1008.3 1008.1 0.0
15/07:30pm 33.7 31.6 8.3 21 14.3 W 9 13 5 7 1007.6 1007.4 0.0
15/07:00pm 37.9 34.9 5.8 14 17.7 WSW 11 15 6 8 1007.3 1007.1 0.0
15/06:30pm 41.7 37.9 -1.1 7 21.7 SW 9 15 5 8 1007.0 1006.8 0.0
15/06:00pm 41.3 36.8 -3.4 6 21.9 SSW 11 17 6 9 1007.1 1006.9 0.0
15/05:30pm 40.4 35.9 -0.2 8 20.7 SW 13 22 7 12 1007.3 1007.1 0.0
15/05:00pm 40.3 35.3 1.4 9 20.3 SW 17 26 9 14 1007.4 1007.2 0.0
15/04:30pm 39.5 34.0 0.8 9 19.9 WSW 19 28 10 15 1007.7 1007.5 0.0
15/04:00pm 41.0 36.1 1.9 9 20.6 WSW 17 24 9 13 1007.7 1007.5 0.0
15/03:30pm 39.9 35.7 3.9 11 19.5 SW 15 24 8 13 1008.0 1007.8 0.0
15/03:00pm 39.7 35.5 3.7 11 19.4 SW 15 24 8 13 1008.3 1008.1 0.0
15/02:30pm 38.5 33.4 2.8 11 18.9 SW 19 28 10 15 1008.8 1008.6 0.0
15/02:00pm 38.5 33.3 0.0 9 19.4 SW 17 30 9 16 1009.1 1008.9 0.0
15/01:30pm 37.5 32.4 0.7 10 18.7 SW 17 26 9 14 1009.5 1009.3 0.0
15/01:00pm 35.9 30.0 -0.5 10 17.9 SSW 20 35 11 19 1010.0 1009.9 0.0
15/12:30pm 32.9 26.7 1.9 14 15.6 SW 24 41 13 22 1010.5 1010.4 0.0
15/12:00pm 32.6 28.5 6.0 19 14.3 SW 17 24 9 13 1009.4 1009.2 0.0
15/11:30am 32.2 29.5 10.3 26 12.6 SW 15 20 8 11 1008.7 1008.5 0.0
15/11:23am 32.4 29.7 10.4 26 12.7 SW 15 20 8 11 1008.7 1008.5 0.0
15/11:00am 37.4 34.2 0.7 10 18.6 NNW 7 11 4 6 1008.4 1008.2 0.0
15/10:30am 36.9 34.2 2.8 12 17.9 NNW 6 9 3 5 1008.4 1008.2 0.0
15/10:00am 36.1 34.7 3.3 13 17.2 CALM 0 6 0 3 1008.4 1008.2 0.0
15/09:30am 32.5 29.2 4.3 17 14.8 NE 11 17 6 9 1008.3 1008.1 0.0
15/09:00am 30.2 28.5 6.1 22 12.8 N 4 7 2 4 1008.7 1008.5 0.0
15/08:30am 27.7 25.9 8.1 29 10.6 NE 7 9 4 5 1008.9 1008.7 0.0
15/08:00am 26.4 25.7 8.4 32 9.7 SE 2 7 1 4 1008.9 1008.7 0.0
15/07:30am 25.3 23.7 6.5 30 9.8 SE 4 7 2 4 1009.1 1008.9 0.0
15/07:00am 24.2 22.6 6.5 32 9.1 SE 4 7 2 4 1009.1 1008.9 0.0
15/06:30am 22.9 20.6 5.8 33 8.7 SSE 7 9 4 5 1009.1 1008.9 0.0
15/06:00am 22.5 19.9 4.1 30 9.0 S 7 9 4 5 1009.0 1008.8 0.0
15/05:30am 21.7 19.3 4.3 32 8.5 S 6 9 3 5 1008.6 1008.4 0.0
15/05:00am 21.9 20.8 4.9 33 8.4 CALM 0 0 0 0 1008.0 1007.8 0.0
15/04:30am 22.0 20.7 4.1 31 8.7 CALM 0 2 0 1 1007.5 1007.3 0.0
15/04:00am 23.6 20.2 1.9 24 10.2 NE 9 15 5 8 1007.7 1007.5 0.0
15/03:30am 23.7 20.6 5.6 31 9.2 NE 11 15 6 8 1008.0 1007.8 0.0
15/03:00am 23.6 21.5 8.1 37 8.2 NNE 9 11 5 6 1008.4 1008.2 0.0
15/02:30am 23.4 22.5 9.4 41 7.6 ESE 4 7 2 4 1008.4 1008.2 0.0
15/02:00am 24.5 23.5 5.8 30 9.5 CALM 0 0 0 0 1008.7 1008.5 0.0
15/01:30am 23.1 22.3 6.4 34 8.6 CALM 0 0 0 0 1008.7 1008.5 0.0
15/01:00am 25.0 23.5 3.0 24 10.7 CALM 0 0 0 0 1008.7 1008.5 0.0
15/12:30am 26.0 24.7 3.9 24 11.0 CALM 0 0 0 0 1008.7 1008.5 0.0
15/12:00am 28.5 25.4 3.4 20 12.6 ENE 9 13 5 7 1008.7 1008.5 0.0
 
Date/Time
CDT
Temp
°C
App
Temp
°C
Dew
Point
°C
Rel
Hum
%
Delta-T
°C
Wind Press
QNH
hPa
Press
MSL
hPa
Rain since
9am
mm
Dir  Spd
km/h
Gust
km/h
Spd
kts
Gust
kts
14/11:30pm 27.1 25.2 7.5 29 10.5 NE 7 17 4 9 1008.9 1008.7 0.0
14/11:00pm 26.8 25.8 5.7 26 10.9 CALM 0 6 0 3 1009.2 1009.0 0.0
14/10:30pm 27.5 26.5 5.7 25 11.3 CALM 0 2 0 1 1009.4 1009.2 0.0

Other Formats:

Comma delimited format used in spreadsheet applications
http://www.bom.gov.au/fwo/IDS60801/IDS60801.94648.axf

JavaScript Object Notation format (JSON) in row-major order
http://www.bom.gov.au/fwo/IDS60801/IDS60801.94648.json